createdAt,value
2018-03-19T00:00:43.032Z,37.51
2018-03-19T00:03:10.098Z,37.52
2018-03-19T00:05:37.170Z,37.33
2018-03-19T00:08:03.481Z,37.68
2018-03-19T00:10:29.791Z,37.54
2018-03-19T00:12:56.821Z,37.74
2018-03-19T00:15:23.143Z,37.84
2018-03-19T00:17:49.554Z,38.12
2018-03-19T00:20:15.847Z,37.61
2018-03-19T00:22:42.877Z,37.73
2018-03-19T00:25:09.187Z,37.42
2018-03-19T00:27:35.451Z,37.69
2018-03-19T00:30:02.484Z,37.84
2018-03-19T00:32:28.784Z,37.74
2018-03-19T00:34:55.076Z,37.35
2018-03-19T00:37:21.392Z,37.64
2018-03-19T00:39:48.416Z,37.22
2018-03-19T00:42:14.716Z,37.57
2018-03-19T00:44:41.780Z,37.20
2018-03-19T00:47:08.801Z,37.32
2018-03-19T00:49:35.100Z,37.38
2018-03-19T00:52:01.423Z,37.49
2018-03-19T00:54:28.483Z,37.65
2018-03-19T00:56:54.804Z,37.43
2018-03-19T00:59:21.830Z,38.48
2018-03-19T01:01:48.086Z,37.67
2018-03-19T01:04:15.123Z,38.09
2018-03-19T01:06:42.208Z,37.99
2018-03-19T01:09:08.500Z,37.76
2018-03-19T01:11:35.534Z,37.89
2018-03-19T01:14:01.836Z,37.97
2018-03-19T01:16:28.154Z,38.24
2018-03-19T01:18:54.444Z,38.06
2018-03-19T01:21:21.488Z,37.96
2018-03-19T01:23:48.534Z,37.90
2018-03-19T01:26:15.602Z,38.34
2018-03-19T01:28:41.912Z,38.90
2018-03-19T01:31:08.959Z,38.83
2018-03-19T01:33:36.019Z,38.77
2018-03-19T01:36:03.095Z,38.97
2018-03-19T01:38:29.410Z,39.00
2018-03-19T01:40:55.711Z,39.75
2018-03-19T01:43:22.043Z,39.14
2018-03-19T01:45:48.333Z,39.17
2018-03-19T01:48:14.619Z,39.36
2018-03-19T01:50:41.667Z,39.52
2018-03-19T01:53:08.708Z,39.45
2018-03-19T01:55:35.750Z,39.36
2018-03-19T01:58:02.798Z,39.73
2018-03-19T02:00:29.854Z,40.03
2018-03-19T02:02:56.925Z,39.88
2018-03-19T02:05:23.242Z,40.18
2018-03-19T02:07:50.299Z,40.65
2018-03-19T02:10:16.600Z,40.31
2018-03-19T02:12:42.953Z,40.19
2018-03-19T02:15:09.969Z,40.48
2018-03-19T02:17:36.271Z,40.07
2018-03-19T02:20:02.631Z,40.46
2018-03-19T02:22:37.318Z,40.65
2018-03-19T02:25:03.786Z,41.12
2018-03-19T02:27:30.150Z,40.78
2018-03-19T02:29:57.179Z,41.06
2018-03-19T02:32:23.561Z,40.79
2018-03-19T02:34:49.917Z,40.57
2018-03-19T02:37:16.205Z,41.17
2018-03-19T02:39:42.559Z,41.27
2018-03-19T02:42:08.891Z,41.00
2018-03-19T02:44:35.184Z,41.45
2018-03-19T02:47:02.272Z,41.28
2018-03-19T02:49:28.557Z,41.24
2018-03-19T02:51:54.920Z,40.99
2018-03-19T02:54:21.938Z,41.47
2018-03-19T02:56:48.988Z,41.34
2018-03-19T02:59:16.071Z,41.33
2018-03-19T03:01:42.410Z,41.16
2018-03-19T03:04:08.673Z,41.36
2018-03-19T03:06:34.939Z,41.30
2018-03-19T03:09:01.236Z,41.24
2018-03-19T03:11:27.562Z,41.34
2018-03-19T03:13:53.858Z,41.57
2018-03-19T03:16:20.184Z,41.63
2018-03-19T03:18:46.486Z,41.77
2018-03-19T03:21:13.570Z,41.63
2018-03-19T03:23:39.875Z,41.76
2018-03-19T03:26:06.187Z,41.79
2018-03-19T03:28:33.233Z,42.06
2018-03-19T03:30:59.596Z,42.07
2018-03-19T03:33:25.942Z,42.14
2018-03-19T03:35:52.227Z,42.08
2018-03-19T03:38:19.270Z,42.05
2018-03-19T03:40:45.560Z,42.15
2018-03-19T03:43:11.860Z,42.50
2018-03-19T03:45:38.172Z,42.75
2018-03-19T03:48:05.187Z,42.91
2018-03-19T03:50:32.232Z,42.40
2018-03-19T03:52:58.504Z,42.27
2018-03-19T03:55:25.520Z,42.46
2018-03-19T03:57:51.820Z,43.32
2018-03-19T04:00:18.142Z,43.25
2018-03-19T04:02:45.057Z,44.22
2018-03-19T04:05:19.050Z,44.05
2018-03-19T04:07:45.340Z,44.25
2018-03-19T04:10:11.602Z,44.51
2018-03-19T04:12:37.918Z,44.64
2018-03-19T04:15:04.191Z,44.47
2018-03-19T04:17:31.256Z,44.22
2018-03-19T04:19:57.570Z,44.13
2018-03-19T04:22:24.619Z,44.34
2018-03-19T04:24:50.940Z,44.84
2018-03-19T04:27:17.973Z,44.92
2018-03-19T04:29:44.301Z,44.56
2018-03-19T04:32:10.580Z,44.80
2018-03-19T04:34:36.924Z,44.58
2018-03-19T04:37:03.197Z,45.15
2018-03-19T04:39:29.525Z,44.59
2018-03-19T04:41:55.940Z,44.83
2018-03-19T04:44:22.231Z,44.85
2018-03-19T04:46:48.511Z,45.27
2018-03-19T04:49:14.889Z,45.49
2018-03-19T04:51:41.215Z,45.11
2018-03-19T04:54:07.506Z,44.96
2018-03-19T04:56:33.836Z,45.54
2018-03-19T04:59:00.180Z,46.19
2018-03-19T05:01:27.204Z,45.63
2018-03-19T05:03:53.596Z,45.18
2018-03-19T05:06:20.018Z,45.25
2018-03-19T05:08:47.059Z,45.04
2018-03-19T05:11:14.175Z,45.76
2018-03-19T05:13:40.547Z,44.95
2018-03-19T05:16:07.607Z,44.72
2018-03-19T05:18:33.934Z,45.54
2018-03-19T05:21:00.261Z,45.26
2018-03-19T05:23:26.572Z,44.75
2018-03-19T05:25:53.750Z,46.68
2018-03-19T05:28:20.079Z,45.44
2018-03-19T05:30:46.387Z,45.68
2018-03-19T05:33:13.543Z,45.02
2018-03-19T05:35:39.834Z,45.07
2018-03-19T05:38:06.225Z,45.14
2018-03-19T05:40:32.553Z,44.52
2018-03-19T05:42:58.967Z,43.90
2018-03-19T05:45:26.092Z,44.28
2018-03-19T05:47:52.462Z,44.16
2018-03-19T05:50:18.842Z,42.96
2018-03-19T05:52:45.192Z,42.72
2018-03-19T05:55:36.563Z,42.99
2018-03-19T05:58:02.943Z,43.19
2018-03-19T06:00:29.330Z,42.98
2018-03-19T06:02:55.643Z,43.02
2018-03-19T06:05:21.992Z,42.53
2018-03-19T06:07:48.363Z,41.89
2018-03-19T06:10:14.712Z,41.80
2018-03-19T06:12:41.016Z,41.59
2018-03-19T06:15:07.350Z,41.85
2018-03-19T06:17:33.651Z,41.81
2018-03-19T06:19:59.977Z,41.46
2018-03-19T06:22:26.316Z,42.07
2018-03-19T06:24:52.605Z,42.25
2018-03-19T06:27:18.860Z,41.33
2018-03-19T06:29:45.117Z,40.49
2018-03-19T06:32:11.461Z,40.67
2018-03-19T06:34:37.801Z,40.26
2018-03-19T06:37:04.158Z,40.03
2018-03-19T06:39:31.235Z,40.28
2018-03-19T06:41:57.615Z,40.23
2018-03-19T06:44:23.936Z,39.68
2018-03-19T06:46:50.258Z,40.23
2018-03-19T06:49:16.608Z,40.32
2018-03-19T06:51:42.978Z,40.19
2018-03-19T06:54:09.298Z,39.56
2018-03-19T06:56:36.362Z,39.36
2018-03-19T06:59:02.704Z,39.03
2018-03-19T07:01:29.044Z,38.66
2018-03-19T07:03:55.422Z,38.21
2018-03-19T07:06:21.789Z,38.08
2018-03-19T07:08:48.096Z,37.67
2018-03-19T07:11:14.412Z,37.83
2018-03-19T07:13:41.580Z,38.11
2018-03-19T07:16:08.625Z,38.13
2018-03-19T07:18:34.955Z,37.71
2018-03-19T07:21:02.001Z,36.82
2018-03-19T07:23:28.332Z,36.33
2018-03-19T07:25:54.665Z,36.41
2018-03-19T07:28:21.751Z,36.50
2018-03-19T07:30:48.045Z,36.18
2018-03-19T07:33:14.336Z,36.13
2018-03-19T07:35:40.664Z,35.62
2018-03-19T07:38:07.002Z,35.45
2018-03-19T07:40:33.348Z,35.19
2018-03-19T07:42:59.708Z,35.11
2018-03-19T07:45:26.782Z,34.62
2018-03-19T07:47:53.088Z,35.20
2018-03-19T07:50:19.459Z,35.01
2018-03-19T07:52:45.752Z,35.12
2018-03-19T07:55:12.823Z,35.52
2018-03-19T07:57:39.152Z,34.99
2018-03-19T08:00:05.505Z,34.64
2018-03-19T08:02:31.841Z,34.05
2018-03-19T08:04:58.166Z,34.51
2018-03-19T08:07:24.487Z,34.64
2018-03-19T08:09:50.819Z,35.02
2018-03-19T08:12:17.193Z,34.22
2018-03-19T08:14:43.536Z,33.93
2018-03-19T08:17:09.849Z,33.35
2018-03-19T08:19:36.165Z,33.64
2018-03-19T08:22:02.492Z,34.34
2018-03-19T08:24:28.820Z,35.55
2018-03-19T08:27:05.193Z,35.61
2018-03-19T08:29:31.505Z,35.63
2018-03-19T08:31:57.825Z,35.70
2018-03-19T08:34:24.170Z,35.08
2018-03-19T08:36:50.491Z,34.48
2018-03-19T08:39:16.820Z,34.27
2018-03-19T08:41:43.177Z,34.16
2018-03-19T08:44:09.447Z,34.26
2018-03-19T08:46:35.801Z,34.49
2018-03-19T08:49:02.178Z,34.73
2018-03-19T08:51:28.507Z,33.80
2018-03-19T08:53:54.827Z,34.06
2018-03-19T08:56:21.128Z,33.57
2018-03-19T08:58:47.450Z,32.95
2018-03-19T09:01:14.500Z,34.16
2018-03-19T09:03:41.538Z,34.36
2018-03-19T09:06:08.617Z,34.43
2018-03-19T09:08:34.896Z,35.12
2018-03-19T09:11:01.221Z,34.77
2018-03-19T09:13:27.514Z,35.63
2018-03-19T09:15:53.781Z,35.70
2018-03-19T09:18:20.167Z,35.12
2018-03-19T09:20:46.478Z,34.31
2018-03-19T09:23:12.799Z,34.55
2018-03-19T09:25:39.137Z,33.99
2018-03-19T09:28:06.183Z,33.64
2018-03-19T09:30:33.255Z,33.47
2018-03-19T09:32:59.552Z,33.59
2018-03-19T09:35:25.930Z,33.67
2018-03-19T09:37:52.261Z,34.57
2018-03-19T09:40:18.581Z,34.95
2018-03-19T09:42:44.911Z,35.37
2018-03-19T09:45:11.214Z,34.17
2018-03-19T09:47:37.484Z,35.25
2018-03-19T09:50:03.828Z,35.17
2018-03-19T09:52:30.098Z,35.24
2018-03-19T09:54:56.380Z,35.07
2018-03-19T09:57:22.650Z,35.29
2018-03-19T09:59:48.964Z,34.31
2018-03-19T10:02:15.268Z,34.52
2018-03-19T10:04:41.607Z,34.67
2018-03-19T10:07:07.920Z,34.34
2018-03-19T10:09:34.224Z,34.25
2018-03-19T10:12:01.312Z,33.78
2018-03-19T10:14:27.641Z,34.42
2018-03-19T10:16:53.893Z,33.55
2018-03-19T10:19:20.165Z,33.94
2018-03-19T10:21:47.339Z,34.09
2018-03-19T10:24:13.722Z,34.17
2018-03-19T10:26:40.067Z,34.50
2018-03-19T10:29:06.379Z,34.72
2018-03-19T10:31:32.692Z,35.03
2018-03-19T10:33:59.024Z,34.86
2018-03-19T10:36:25.355Z,34.22
2018-03-19T10:38:51.639Z,34.59
2018-03-19T10:41:18.724Z,34.27
2018-03-19T10:43:45.126Z,34.24
2018-03-19T10:46:12.202Z,35.19
2018-03-19T10:48:38.500Z,34.60
2018-03-19T10:51:05.543Z,32.83
2018-03-19T10:53:32.690Z,33.68
2018-03-19T10:55:59.821Z,32.85
2018-03-19T10:58:33.188Z,33.03
2018-03-19T11:01:05.561Z,33.73
2018-03-19T11:03:31.859Z,32.58
2018-03-19T11:06:04.308Z,33.09
2018-03-19T11:08:33.509Z,32.77
2018-03-19T11:10:59.840Z,32.26
2018-03-19T11:13:26.944Z,31.28
2018-03-19T11:15:54.054Z,31.80
2018-03-19T11:18:21.097Z,31.31
2018-03-19T11:20:48.123Z,31.93
2018-03-19T11:23:14.383Z,31.85
2018-03-19T11:25:41.464Z,32.24
2018-03-19T11:28:07.779Z,31.27
2018-03-19T11:30:34.101Z,30.56
2018-03-19T11:33:00.516Z,30.57
2018-03-19T11:35:27.658Z,28.95
2018-03-19T11:37:54.696Z,26.39
2018-03-19T11:40:21.033Z,23.70
2018-03-19T11:42:47.352Z,21.57
2018-03-19T11:45:13.806Z,19.88
2018-03-19T11:47:40.971Z,18.71
2018-03-19T11:50:07.315Z,17.08
2018-03-19T11:52:33.638Z,15.89
2018-03-19T11:54:59.970Z,14.93
2018-03-19T11:57:26.313Z,14.38
2018-03-19T11:59:52.708Z,13.14
2018-03-19T12:02:19.757Z,11.58
2018-03-19T12:04:46.039Z,10.99
2018-03-19T12:07:12.358Z,10.78
2018-03-19T12:09:38.694Z,10.84
2018-03-19T12:12:04.962Z,12.01
2018-03-19T12:14:31.340Z,12.76
2018-03-19T12:16:57.724Z,13.34
2018-03-19T12:19:24.068Z,11.73
2018-03-19T12:21:50.419Z,11.29
2018-03-19T12:24:17.492Z,11.03
2018-03-19T12:26:43.868Z,9.87
2018-03-19T12:29:10.188Z,10.00
2018-03-19T12:31:36.537Z,10.06
2018-03-19T12:34:02.882Z,10.91
2018-03-19T12:36:30.026Z,10.01
2018-03-19T12:38:56.275Z,10.00
2018-03-19T12:41:23.616Z,9.65
2018-03-19T12:43:50.657Z,10.00
2018-03-19T12:46:16.953Z,9.44
2018-03-19T12:48:43.259Z,8.98
2018-03-19T12:51:09.551Z,8.69
2018-03-19T12:53:35.961Z,8.86
2018-03-19T12:56:03.043Z,8.72
2018-03-19T12:58:30.171Z,9.43
2018-03-19T13:00:56.521Z,9.46
2018-03-19T13:03:23.046Z,9.57
2018-03-19T13:05:49.991Z,8.74
2018-03-19T13:08:17.192Z,7.45
2018-03-19T13:10:43.506Z,6.87
2018-03-19T13:13:09.839Z,7.59
2018-03-19T13:15:36.163Z,7.61
2018-03-19T13:18:02.504Z,7.83
2018-03-19T13:20:29.067Z,7.35
2018-03-19T13:22:55.447Z,6.76
2018-03-19T13:25:22.510Z,7.06
2018-03-19T13:27:49.572Z,6.58
2018-03-19T13:30:15.931Z,6.19
2018-03-19T13:32:42.232Z,6.16
2018-03-19T13:35:08.698Z,6.02
2018-03-19T13:37:35.157Z,6.07
2018-03-19T13:40:01.539Z,5.55
2018-03-19T13:42:28.616Z,6.08
2018-03-19T13:44:54.981Z,6.26
2018-03-19T13:47:21.301Z,7.43
2018-03-19T13:49:47.629Z,7.61
2018-03-19T13:52:13.932Z,7.53
2018-03-19T13:54:40.276Z,7.30
2018-03-19T13:57:06.603Z,7.25
2018-03-19T13:59:32.895Z,7.14
2018-03-19T14:01:59.207Z,7.60
2018-03-19T14:04:25.507Z,7.24
2018-03-19T14:06:51.825Z,7.12
2018-03-19T14:09:18.174Z,6.61
2018-03-19T14:11:44.449Z,6.49
2018-03-19T14:14:10.737Z,6.12
2018-03-19T14:16:37.016Z,6.70
2018-03-19T14:19:03.290Z,6.58
2018-03-19T14:21:29.627Z,6.91
2018-03-19T14:23:55.904Z,6.88
2018-03-19T14:26:22.267Z,6.88
2018-03-19T14:28:48.563Z,6.44
2018-03-19T14:31:15.632Z,6.12
2018-03-19T14:33:41.961Z,6.46
2018-03-19T14:36:08.293Z,6.00
2018-03-19T14:38:34.649Z,6.17
2018-03-19T14:41:01.080Z,6.47
2018-03-19T14:43:27.389Z,6.26
2018-03-19T14:45:53.968Z,6.55
2018-03-19T14:48:20.304Z,7.27
2018-03-19T14:50:46.726Z,6.90
2018-03-19T14:53:13.758Z,7.00
2018-03-19T14:55:40.066Z,6.61
2018-03-19T14:58:06.491Z,6.05
2018-03-19T15:00:32.811Z,6.47
2018-03-19T15:02:59.908Z,7.18
2018-03-19T15:05:26.306Z,6.16
2018-03-19T15:07:52.647Z,5.51
2018-03-19T15:10:19.077Z,6.14
2018-03-19T15:12:45.442Z,6.53
2018-03-19T15:15:11.744Z,6.19
2018-03-19T15:17:38.064Z,7.16
2018-03-19T15:20:04.816Z,7.54
2018-03-19T15:22:31.141Z,7.29
2018-03-19T15:24:57.460Z,6.38
2018-03-19T15:27:23.782Z,7.20
2018-03-19T15:29:50.803Z,7.34
2018-03-19T15:32:17.085Z,7.46
2018-03-19T15:34:43.416Z,7.25
2018-03-19T15:37:09.749Z,7.49
2018-03-19T15:39:36.069Z,7.81
2018-03-19T15:42:02.397Z,7.76
2018-03-19T15:44:28.772Z,8.26
2018-03-19T15:46:55.102Z,8.56
2018-03-19T15:49:21.428Z,8.70
2018-03-19T15:51:47.757Z,9.20
2018-03-19T15:54:14.093Z,9.06
2018-03-19T15:56:41.179Z,9.99
2018-03-19T15:59:07.500Z,10.38
2018-03-19T16:01:33.893Z,11.21
2018-03-19T16:04:00.232Z,12.72
2018-03-19T16:06:26.555Z,13.54
2018-03-19T16:08:52.892Z,14.79
2018-03-19T16:11:19.220Z,15.59
2018-03-19T16:13:45.620Z,16.71
2018-03-19T16:16:11.947Z,17.76
2018-03-19T16:18:44.838Z,18.49
2018-03-19T16:21:11.187Z,18.85
2018-03-19T16:23:37.565Z,19.67
2018-03-19T16:26:03.928Z,19.69
2018-03-19T16:28:30.994Z,19.86
2018-03-19T16:30:57.310Z,19.77
2018-03-19T16:33:23.665Z,19.74
2018-03-19T16:35:50.959Z,20.36
2018-03-19T16:38:17.299Z,20.83
2018-03-19T16:40:43.801Z,20.79
2018-03-19T16:43:10.136Z,20.61
2018-03-19T16:45:36.449Z,21.03
2018-03-19T16:48:02.994Z,21.28
2018-03-19T16:50:29.391Z,20.80
2018-03-19T16:52:56.449Z,21.19
2018-03-19T16:55:22.762Z,21.32
2018-03-19T16:57:49.884Z,22.04
2018-03-19T17:00:16.186Z,22.08
2018-03-19T17:02:42.572Z,22.38
2018-03-19T17:05:09.718Z,23.18
2018-03-19T17:07:36.835Z,23.11
2018-03-19T17:10:03.204Z,23.24
2018-03-19T17:12:29.583Z,23.66
2018-03-19T17:14:55.891Z,23.44
2018-03-19T17:17:22.232Z,24.06
2018-03-19T17:19:48.628Z,24.23
2018-03-19T17:22:15.813Z,24.50
2018-03-19T17:24:42.151Z,24.36
2018-03-19T17:27:08.509Z,24.76
2018-03-19T17:29:35.709Z,25.19
2018-03-19T17:32:02.063Z,25.28
2018-03-19T17:34:28.437Z,25.03
2018-03-19T17:36:54.913Z,25.25
2018-03-19T17:39:21.249Z,25.74
2018-03-19T17:41:48.370Z,26.12
2018-03-19T17:44:14.652Z,26.31
2018-03-19T17:46:40.977Z,26.46
2018-03-19T17:49:08.337Z,26.15
2018-03-19T17:51:34.738Z,26.20
2018-03-19T17:54:01.784Z,26.39
2018-03-19T17:56:28.883Z,26.63
2018-03-19T17:58:55.206Z,26.21
2018-03-19T18:01:21.508Z,26.70
2018-03-19T18:03:47.890Z,26.40
2018-03-19T18:06:14.196Z,26.78
2018-03-19T18:08:40.517Z,27.68
2018-03-19T18:11:06.896Z,26.63
2018-03-19T18:13:33.222Z,26.68
2018-03-19T18:15:59.559Z,26.61
2018-03-19T18:18:25.932Z,26.15
2018-03-19T18:20:52.263Z,26.45
2018-03-19T18:23:18.590Z,26.67
2018-03-19T18:25:44.955Z,26.85
2018-03-19T18:28:11.257Z,26.51
2018-03-19T18:30:37.609Z,26.24
2018-03-19T18:33:03.943Z,26.35
2018-03-19T18:35:30.309Z,26.88
2018-03-19T18:37:56.673Z,26.51
2018-03-19T18:40:23.753Z,26.74
2018-03-19T18:42:51.572Z,26.59
2018-03-19T18:48:06.417Z,27.59
2018-03-19T18:50:32.713Z,27.18
2018-03-19T18:52:59.001Z,26.94
2018-03-19T18:55:25.333Z,26.76
2018-03-19T18:57:51.731Z,26.54
2018-03-19T19:00:18.154Z,26.44
2018-03-19T19:02:44.550Z,25.87
2018-03-19T19:05:11.712Z,26.92
2018-03-19T19:07:38.162Z,27.48
2018-03-19T19:10:04.462Z,27.97
2018-03-19T19:12:31.552Z,28.22
2018-03-19T19:14:57.860Z,28.57
2018-03-19T19:17:24.832Z,29.13
2018-03-19T19:19:51.272Z,28.73
2018-03-19T19:22:17.763Z,29.58
2018-03-19T19:24:44.221Z,30.02
2018-03-19T19:27:10.607Z,29.65
2018-03-19T19:29:36.998Z,29.58
2018-03-19T19:32:03.366Z,29.82
2018-03-19T19:34:29.887Z,30.69
2018-03-19T19:36:57.200Z,29.63
2018-03-19T19:39:23.763Z,30.10
2018-03-19T19:41:50.136Z,32.26
2018-03-19T19:44:16.652Z,32.23
2018-03-19T19:46:43.053Z,34.04
2018-03-19T19:49:09.366Z,33.67
2018-03-19T19:51:35.766Z,33.55
2018-03-19T19:54:02.222Z,33.02
2018-03-19T19:56:29.370Z,33.44
2018-03-19T19:58:56.525Z,34.54
2018-03-19T20:01:22.981Z,35.14
2018-03-19T20:03:49.276Z,35.58
2018-03-19T20:06:15.671Z,36.33
2018-03-19T20:08:41.985Z,36.45
2018-03-19T20:11:15.142Z,36.83
2018-03-19T20:13:41.569Z,36.86
2018-03-19T20:16:07.978Z,37.17
2018-03-19T20:18:34.311Z,38.02
2018-03-19T20:21:00.650Z,36.56
2018-03-19T20:23:27.813Z,35.42
2018-03-19T20:25:54.209Z,36.36
2018-03-19T20:28:20.636Z,36.08
2018-03-19T20:30:47.008Z,36.17
2018-03-19T20:33:13.374Z,37.05
2018-03-19T20:35:39.716Z,37.73
2018-03-19T20:38:06.228Z,37.96
2018-03-19T20:40:32.905Z,38.39
2018-03-19T20:43:00.126Z,39.61
2018-03-19T20:45:26.461Z,39.58
2018-03-19T20:47:52.804Z,40.18
2018-03-19T20:50:19.197Z,37.59
2018-03-19T20:52:46.299Z,37.63
2018-03-19T20:55:12.643Z,37.67
2018-03-19T20:57:38.967Z,38.48
2018-03-19T21:00:05.309Z,38.77
2018-03-19T21:02:31.652Z,38.51
2018-03-19T21:04:58.022Z,37.98
2018-03-19T21:07:24.416Z,37.69
2018-03-19T21:09:50.720Z,38.73
2018-03-19T21:12:17.079Z,39.29
2018-03-19T21:14:43.395Z,38.34
2018-03-19T21:17:09.756Z,38.91
2018-03-19T21:19:36.899Z,38.74
2018-03-19T21:22:03.232Z,38.47
2018-03-19T21:24:29.607Z,38.94
2018-03-19T21:26:55.893Z,39.49
2018-03-19T21:29:22.177Z,39.52
2018-03-19T21:31:48.584Z,40.19
2018-03-19T21:34:15.083Z,39.23
2018-03-19T21:36:41.381Z,42.35
2018-03-19T21:39:07.707Z,41.34
2018-03-19T21:41:34.067Z,42.34
2018-03-19T21:44:00.334Z,41.13
2018-03-19T21:46:27.511Z,42.92
2018-03-19T21:48:53.876Z,42.26
2018-03-19T21:51:20.230Z,42.16
2018-03-19T21:53:46.555Z,41.71
2018-03-19T21:56:12.952Z,41.74
2018-03-19T21:58:39.278Z,41.09
2018-03-19T22:01:05.649Z,40.77
2018-03-19T22:03:31.996Z,41.21
2018-03-19T22:05:59.089Z,40.95
2018-03-19T22:08:25.381Z,41.35
2018-03-19T22:10:52.490Z,41.47
2018-03-19T22:13:18.803Z,40.61
2018-03-19T22:15:45.160Z,40.79
2018-03-19T22:18:12.241Z,40.72
2018-03-19T22:20:39.302Z,40.27
2018-03-19T22:23:06.372Z,40.68
2018-03-19T22:25:32.751Z,41.09
2018-03-19T22:27:59.064Z,41.38
2018-03-19T22:30:25.368Z,41.70
2018-03-19T22:32:51.675Z,42.23
2018-03-19T22:35:18.008Z,42.58
2018-03-19T22:37:44.270Z,42.75
2018-03-19T22:40:10.687Z,42.73
2018-03-19T22:42:37.000Z,42.74
2018-03-19T22:45:04.086Z,43.79
2018-03-19T22:47:30.392Z,44.34
2018-03-19T22:49:56.739Z,44.42
2018-03-19T22:52:23.069Z,44.13
2018-03-19T22:54:49.417Z,44.65
2018-03-19T22:57:15.737Z,44.84
2018-03-19T22:59:42.052Z,44.93
2018-03-19T23:02:08.363Z,44.80
2018-03-19T23:04:54.148Z,44.65
2018-03-19T23:07:21.216Z,45.48
2018-03-19T23:09:47.527Z,46.99
2018-03-19T23:12:13.815Z,46.02
2018-03-19T23:14:40.127Z,46.47
2018-03-19T23:17:06.440Z,46.47
2018-03-19T23:19:32.736Z,45.93
2018-03-19T23:21:59.036Z,46.16
2018-03-19T23:24:25.355Z,46.71
2018-03-19T23:26:51.654Z,46.56
2018-03-19T23:29:17.958Z,46.63
2018-03-19T23:31:45.025Z,46.63
2018-03-19T23:34:12.109Z,46.27
2018-03-19T23:36:38.440Z,47.23
2018-03-19T23:39:04.734Z,47.66
2018-03-19T23:41:31.805Z,47.98
2018-03-19T23:43:58.123Z,46.73
2018-03-19T23:46:24.492Z,46.32
2018-03-19T23:48:50.806Z,45.90
2018-03-19T23:51:18.234Z,45.29
2018-03-19T23:53:45.251Z,45.14
2018-03-19T23:56:11.526Z,45.50
2018-03-19T23:58:37.819Z,46.02
